sensor_id;sensor_type;location;lat;lon;timestamp;temperature;humidity
43679;DHT22;29279;50.858;4.392;2022-07-15T00:00:42;18.60;98.20
43679;DHT22;29279;50.858;4.392;2022-07-15T00:03:08;18.60;98.40
43679;DHT22;29279;50.858;4.392;2022-07-15T00:05:33;18.60;98.40
43679;DHT22;29279;50.858;4.392;2022-07-15T00:07:59;18.60;98.40
43679;DHT22;29279;50.858;4.392;2022-07-15T00:10:27;18.60;98.40
43679;DHT22;29279;50.858;4.392;2022-07-15T00:12:54;18.60;98.80
43679;DHT22;29279;50.858;4.392;2022-07-15T00:15:23;18.60;98.60
43679;DHT22;29279;50.858;4.392;2022-07-15T00:17:49;18.60;98.70
43679;DHT22;29279;50.858;4.392;2022-07-15T00:20:16;18.50;98.40
43679;DHT22;29279;50.858;4.392;2022-07-15T00:22:43;18.40;98.80
43679;DHT22;29279;50.858;4.392;2022-07-15T00:25:09;18.30;98.90
43679;DHT22;29279;50.858;4.392;2022-07-15T00:27:36;18.40;99.00
43679;DHT22;29279;50.858;4.392;2022-07-15T00:30:15;18.30;99.10
43679;DHT22;29279;50.858;4.392;2022-07-15T00:32:41;18.30;99.10
43679;DHT22;29279;50.858;4.392;2022-07-15T00:35:07;18.30;98.90
43679;DHT22;29279;50.858;4.392;2022-07-15T00:37:32;18.30;99.00
43679;DHT22;29279;50.858;4.392;2022-07-15T00:39:58;18.30;98.90
43679;DHT22;29279;50.858;4.392;2022-07-15T00:42:24;18.20;99.00
43679;DHT22;29279;50.858;4.392;2022-07-15T00:45:10;18.20;99.10
43679;DHT22;29279;50.858;4.392;2022-07-15T00:47:35;18.20;99.00
43679;DHT22;29279;50.858;4.392;2022-07-15T00:50:01;18.20;99.00
43679;DHT22;29279;50.858;4.392;2022-07-15T00:52:28;18.10;99.20
43679;DHT22;29279;50.858;4.392;2022-07-15T00:54:58;18.20;99.20
43679;DHT22;29279;50.858;4.392;2022-07-15T00:57:27;18.10;99.50
43679;DHT22;29279;50.858;4.392;2022-07-15T00:59:54;18.10;99.70
43679;DHT22;29279;50.858;4.392;2022-07-15T01:02:20;18.10;99.90
43679;DHT22;29279;50.858;4.392;2022-07-15T01:04:48;18.00;99.90
43679;DHT22;29279;50.858;4.392;2022-07-15T01:07:13;18.00;99.90
43679;DHT22;29279;50.858;4.392;2022-07-15T01:09:39;18.00;99.90
43679;DHT22;29279;50.858;4.392;2022-07-15T01:12:05;18.00;99.90
43679;DHT22;29279;50.858;4.392;2022-07-15T01:14:31;18.00;99.90
43679;DHT22;29279;50.858;4.392;2022-07-15T01:16:57;17.90;99.90
43679;DHT22;29279;50.858;4.392;2022-07-15T01:19:22;17.90;99.90
43679;DHT22;29279;50.858;4.392;2022-07-15T01:21:48;17.90;99.90
43679;DHT22;29279;50.858;4.392;2022-07-15T01:24:14;17.90;99.90
43679;DHT22;29279;50.858;4.392;2022-07-15T01:26:39;17.90;99.90
43679;DHT22;29279;50.858;4.392;2022-07-15T01:29:06;17.80;99.90
43679;DHT22;29279;50.858;4.392;2022-07-15T01:31:31;17.90;99.90
43679;DHT22;29279;50.858;4.392;2022-07-15T01:34:00;17.90;99.90
43679;DHT22;29279;50.858;4.392;2022-07-15T01:36:26;17.90;99.90
43679;DHT22;29279;50.858;4.392;2022-07-15T01:38:52;17.80;99.90
43679;DHT22;29279;50.858;4.392;2022-07-15T01:41:17;17.80;99.90
43679;DHT22;29279;50.858;4.392;2022-07-15T01:43:43;17.80;99.90
43679;DHT22;29279;50.858;4.392;2022-07-15T01:46:09;17.70;99.90
43679;DHT22;29279;50.858;4.392;2022-07-15T01:48:34;17.70;99.90
43679;DHT22;29279;50.858;4.392;2022-07-15T01:51:18;17.70;99.90
43679;DHT22;29279;50.858;4.392;2022-07-15T01:53:44;17.70;99.90
43679;DHT22;29279;50.858;4.392;2022-07-15T01:56:10;17.70;99.90
43679;DHT22;29279;50.858;4.392;2022-07-15T01:58:35;17.70;99.90
43679;DHT22;29279;50.858;4.392;2022-07-15T02:01:01;17.60;99.90
43679;DHT22;29279;50.858;4.392;2022-07-15T02:03:27;17.60;99.90
43679;DHT22;29279;50.858;4.392;2022-07-15T02:05:52;17.60;99.90
43679;DHT22;29279;50.858;4.392;2022-07-15T02:08:18;17.60;99.90
43679;DHT22;29279;50.858;4.392;2022-07-15T02:10:43;17.50;99.90
43679;DHT22;29279;50.858;4.392;2022-07-15T02:13:11;17.50;99.90
43679;DHT22;29279;50.858;4.392;2022-07-15T02:15:37;17.50;99.90
43679;DHT22;29279;50.858;4.392;2022-07-15T02:18:04;17.50;99.90
43679;DHT22;29279;50.858;4.392;2022-07-15T02:20:30;17.50;99.90
43679;DHT22;29279;50.858;4.392;2022-07-15T02:22:56;17.50;99.90
43679;DHT22;29279;50.858;4.392;2022-07-15T02:25:26;17.50;99.90
43679;DHT22;29279;50.858;4.392;2022-07-15T02:27:59;17.50;99.90
43679;DHT22;29279;50.858;4.392;2022-07-15T02:30:32;17.50;99.90
43679;DHT22;29279;50.858;4.392;2022-07-15T02:32:58;17.50;99.90
43679;DHT22;29279;50.858;4.392;2022-07-15T02:35:24;17.40;99.90
43679;DHT22;29279;50.858;4.392;2022-07-15T02:37:50;17.50;99.90
43679;DHT22;29279;50.858;4.392;2022-07-15T02:40:16;17.40;99.90
43679;DHT22;29279;50.858;4.392;2022-07-15T02:42:53;17.40;99.90
43679;DHT22;29279;50.858;4.392;2022-07-15T02:45:21;17.40;99.90
43679;DHT22;29279;50.858;4.392;2022-07-15T02:47:47;17.40;99.90
43679;DHT22;29279;50.858;4.392;2022-07-15T02:50:14;17.30;99.90
43679;DHT22;29279;50.858;4.392;2022-07-15T02:52:40;17.30;99.90
43679;DHT22;29279;50.858;4.392;2022-07-15T02:55:06;17.30;99.90
43679;DHT22;29279;50.858;4.392;2022-07-15T02:57:32;17.30;99.90
43679;DHT22;29279;50.858;4.392;2022-07-15T02:59:58;17.20;99.90
43679;DHT22;29279;50.858;4.392;2022-07-15T03:02:24;17.20;99.90
43679;DHT22;29279;50.858;4.392;2022-07-15T03:04:50;17.20;99.90
43679;DHT22;29279;50.858;4.392;2022-07-15T03:07:16;17.20;99.90
43679;DHT22;29279;50.858;4.392;2022-07-15T03:09:42;17.10;99.90
43679;DHT22;29279;50.858;4.392;2022-07-15T03:12:07;17.10;99.90
43679;DHT22;29279;50.858;4.392;2022-07-15T03:14:33;17.10;99.90
43679;DHT22;29279;50.858;4.392;2022-07-15T03:16:59;17.20;99.90
43679;DHT22;29279;50.858;4.392;2022-07-15T03:19:24;17.20;99.90
43679;DHT22;29279;50.858;4.392;2022-07-15T03:21:50;17.20;99.90
43679;DHT22;29279;50.858;4.392;2022-07-15T03:24:16;17.30;99.90
43679;DHT22;29279;50.858;4.392;2022-07-15T03:26:42;17.30;99.90
43679;DHT22;29279;50.858;4.392;2022-07-15T03:29:08;17.30;99.90
43679;DHT22;29279;50.858;4.392;2022-07-15T03:31:34;17.30;99.90
43679;DHT22;29279;50.858;4.392;2022-07-15T03:34:00;17.30;99.90
43679;DHT22;29279;50.858;4.392;2022-07-15T03:36:26;17.30;99.90
43679;DHT22;29279;50.858;4.392;2022-07-15T03:38:52;17.30;99.90
43679;DHT22;29279;50.858;4.392;2022-07-15T03:41:18;17.30;99.90
43679;DHT22;29279;50.858;4.392;2022-07-15T03:43:44;17.30;99.90
43679;DHT22;29279;50.858;4.392;2022-07-15T03:46:10;17.30;99.90
43679;DHT22;29279;50.858;4.392;2022-07-15T03:48:36;17.20;99.90
43679;DHT22;29279;50.858;4.392;2022-07-15T03:51:01;17.20;99.90
43679;DHT22;29279;50.858;4.392;2022-07-15T03:53:27;17.20;99.90
43679;DHT22;29279;50.858;4.392;2022-07-15T03:55:53;17.20;99.90
43679;DHT22;29279;50.858;4.392;2022-07-15T03:58:19;17.10;99.90
43679;DHT22;29279;50.858;4.392;2022-07-15T04:00:45;17.20;99.90
43679;DHT22;29279;50.858;4.392;2022-07-15T04:03:10;17.10;99.90
43679;DHT22;29279;50.858;4.392;2022-07-15T04:05:36;17.10;99.90
43679;DHT22;29279;50.858;4.392;2022-07-15T04:08:04;17.20;99.90
43679;DHT22;29279;50.858;4.392;2022-07-15T04:10:29;17.20;99.90
43679;DHT22;29279;50.858;4.392;2022-07-15T04:12:56;17.10;99.90
43679;DHT22;29279;50.858;4.392;2022-07-15T04:15:22;17.20;99.90
43679;DHT22;29279;50.858;4.392;2022-07-15T04:17:48;17.20;99.90
43679;DHT22;29279;50.858;4.392;2022-07-15T04:20:14;17.20;99.90
43679;DHT22;29279;50.858;4.392;2022-07-15T04:22:44;17.20;99.90
43679;DHT22;29279;50.858;4.392;2022-07-15T04:25:15;17.20;99.90
43679;DHT22;29279;50.858;4.392;2022-07-15T04:27:41;17.20;99.90
43679;DHT22;29279;50.858;4.392;2022-07-15T04:30:08;17.20;99.90
43679;DHT22;29279;50.858;4.392;2022-07-15T04:32:34;17.20;99.90
43679;DHT22;29279;50.858;4.392;2022-07-15T04:35:00;17.30;99.90
43679;DHT22;29279;50.858;4.392;2022-07-15T04:37:25;17.20;99.90
43679;DHT22;29279;50.858;4.392;2022-07-15T04:39:51;17.20;99.90
43679;DHT22;29279;50.858;4.392;2022-07-15T04:42:17;17.30;99.90
43679;DHT22;29279;50.858;4.392;2022-07-15T04:44:42;17.30;99.90
43679;DHT22;29279;50.858;4.392;2022-07-15T04:47:08;17.30;99.90
43679;DHT22;29279;50.858;4.392;2022-07-15T04:49:33;17.30;99.90
43679;DHT22;29279;50.858;4.392;2022-07-15T04:52:18;17.40;99.90
43679;DHT22;29279;50.858;4.392;2022-07-15T04:54:43;17.40;99.90
43679;DHT22;29279;50.858;4.392;2022-07-15T04:57:10;17.40;99.90
43679;DHT22;29279;50.858;4.392;2022-07-15T04:59:37;17.50;99.90
43679;DHT22;29279;50.858;4.392;2022-07-15T05:02:03;17.50;99.90
43679;DHT22;29279;50.858;4.392;2022-07-15T05:04:29;17.50;99.90
43679;DHT22;29279;50.858;4.392;2022-07-15T05:06:55;17.60;99.90
43679;DHT22;29279;50.858;4.392;2022-07-15T05:09:21;17.70;99.90
43679;DHT22;29279;50.858;4.392;2022-07-15T05:11:47;17.70;99.90
43679;DHT22;29279;50.858;4.392;2022-07-15T05:14:13;17.80;99.90
43679;DHT22;29279;50.858;4.392;2022-07-15T05:16:39;17.80;99.90
43679;DHT22;29279;50.858;4.392;2022-07-15T05:19:05;17.80;99.90
43679;DHT22;29279;50.858;4.392;2022-07-15T05:21:30;17.90;99.90
43679;DHT22;29279;50.858;4.392;2022-07-15T05:23:56;17.90;99.90
43679;DHT22;29279;50.858;4.392;2022-07-15T05:26:22;17.90;99.90
43679;DHT22;29279;50.858;4.392;2022-07-15T05:28:47;18.00;99.90
43679;DHT22;29279;50.858;4.392;2022-07-15T05:31:13;18.10;99.90
43679;DHT22;29279;50.858;4.392;2022-07-15T05:33:39;18.10;99.90
43679;DHT22;29279;50.858;4.392;2022-07-15T05:36:05;18.20;99.90
43679;DHT22;29279;50.858;4.392;2022-07-15T05:38:31;18.30;99.90
43679;DHT22;29279;50.858;4.392;2022-07-15T05:40:57;18.30;99.90
43679;DHT22;29279;50.858;4.392;2022-07-15T05:43:22;18.40;99.90
43679;DHT22;29279;50.858;4.392;2022-07-15T05:45:49;18.40;99.90
43679;DHT22;29279;50.858;4.392;2022-07-15T05:48:15;18.40;99.90
43679;DHT22;29279;50.858;4.392;2022-07-15T05:50:40;18.50;99.90
43679;DHT22;29279;50.858;4.392;2022-07-15T05:53:06;18.60;99.90
43679;DHT22;29279;50.858;4.392;2022-07-15T05:55:32;18.70;99.90
43679;DHT22;29279;50.858;4.392;2022-07-15T05:57:58;18.70;99.90
43679;DHT22;29279;50.858;4.392;2022-07-15T06:00:23;18.70;99.90
43679;DHT22;29279;50.858;4.392;2022-07-15T06:02:49;18.70;99.90
43679;DHT22;29279;50.858;4.392;2022-07-15T06:05:14;18.70;99.90
43679;DHT22;29279;50.858;4.392;2022-07-15T06:07:40;18.80;99.90
43679;DHT22;29279;50.858;4.392;2022-07-15T06:10:07;18.80;99.90
43679;DHT22;29279;50.858;4.392;2022-07-15T06:12:34;18.90;99.90
43679;DHT22;29279;50.858;4.392;2022-07-15T06:14:59;19.00;99.90
43679;DHT22;29279;50.858;4.392;2022-07-15T06:17:25;19.00;99.70
43679;DHT22;29279;50.858;4.392;2022-07-15T06:19:51;19.00;99.40
43679;DHT22;29279;50.858;4.392;2022-07-15T06:22:16;19.10;99.40
43679;DHT22;29279;50.858;4.392;2022-07-15T06:24:42;19.10;99.30
43679;DHT22;29279;50.858;4.392;2022-07-15T06:27:08;19.10;99.10
43679;DHT22;29279;50.858;4.392;2022-07-15T06:29:34;19.10;99.10
43679;DHT22;29279;50.858;4.392;2022-07-15T06:31:59;19.20;99.00
43679;DHT22;29279;50.858;4.392;2022-07-15T06:34:25;19.20;98.90
43679;DHT22;29279;50.858;4.392;2022-07-15T06:36:51;19.30;98.80
43679;DHT22;29279;50.858;4.392;2022-07-15T06:39:17;19.40;98.90
43679;DHT22;29279;50.858;4.392;2022-07-15T06:41:43;19.50;98.60
43679;DHT22;29279;50.858;4.392;2022-07-15T06:44:08;19.50;98.20
43679;DHT22;29279;50.858;4.392;2022-07-15T06:46:34;19.70;97.90
43679;DHT22;29279;50.858;4.392;2022-07-15T06:49:00;19.80;97.50
43679;DHT22;29279;50.858;4.392;2022-07-15T06:51:26;19.70;97.20
43679;DHT22;29279;50.858;4.392;2022-07-15T06:53:51;19.80;97.10
43679;DHT22;29279;50.858;4.392;2022-07-15T06:56:17;19.80;96.90
43679;DHT22;29279;50.858;4.392;2022-07-15T06:58:43;19.80;96.90
43679;DHT22;29279;50.858;4.392;2022-07-15T07:01:08;19.80;96.70
43679;DHT22;29279;50.858;4.392;2022-07-15T07:03:34;19.90;96.70
43679;DHT22;29279;50.858;4.392;2022-07-15T07:06:00;20.00;96.50
43679;DHT22;29279;50.858;4.392;2022-07-15T07:08:27;20.10;96.20
43679;DHT22;29279;50.858;4.392;2022-07-15T07:10:53;20.30;95.80
43679;DHT22;29279;50.858;4.392;2022-07-15T07:13:19;20.30;95.90
43679;DHT22;29279;50.858;4.392;2022-07-15T07:15:44;20.40;95.50
43679;DHT22;29279;50.858;4.392;2022-07-15T07:18:10;20.50;95.40
43679;DHT22;29279;50.858;4.392;2022-07-15T07:20:36;20.60;94.90
43679;DHT22;29279;50.858;4.392;2022-07-15T07:23:02;20.70;94.20
43679;DHT22;29279;50.858;4.392;2022-07-15T07:25:28;20.60;94.40
43679;DHT22;29279;50.858;4.392;2022-07-15T07:27:54;20.50;94.30
43679;DHT22;29279;50.858;4.392;2022-07-15T07:30:20;20.60;93.90
43679;DHT22;29279;50.858;4.392;2022-07-15T07:32:46;20.40;93.90
43679;DHT22;29279;50.858;4.392;2022-07-15T07:35:12;20.40;94.00
43679;DHT22;29279;50.858;4.392;2022-07-15T07:37:38;20.40;94.20
43679;DHT22;29279;50.858;4.392;2022-07-15T07:40:08;20.30;94.00
43679;DHT22;29279;50.858;4.392;2022-07-15T07:42:35;20.40;94.20
43679;DHT22;29279;50.858;4.392;2022-07-15T07:45:00;20.50;94.00
43679;DHT22;29279;50.858;4.392;2022-07-15T07:47:27;20.70;93.30
43679;DHT22;29279;50.858;4.392;2022-07-15T07:49:52;20.70;93.10
43679;DHT22;29279;50.858;4.392;2022-07-15T07:52:18;20.80;92.90
43679;DHT22;29279;50.858;4.392;2022-07-15T07:54:44;20.90;92.70
43679;DHT22;29279;50.858;4.392;2022-07-15T07:57:10;21.10;92.40
43679;DHT22;29279;50.858;4.392;2022-07-15T07:59:36;21.20;91.80
43679;DHT22;29279;50.858;4.392;2022-07-15T08:02:02;21.30;91.70
43679;DHT22;29279;50.858;4.392;2022-07-15T08:04:29;21.40;91.70
43679;DHT22;29279;50.858;4.392;2022-07-15T08:06:56;21.40;91.10
43679;DHT22;29279;50.858;4.392;2022-07-15T08:09:22;21.40;91.00
43679;DHT22;29279;50.858;4.392;2022-07-15T08:11:48;21.50;90.90
43679;DHT22;29279;50.858;4.392;2022-07-15T08:14:13;21.60;90.80
43679;DHT22;29279;50.858;4.392;2022-07-15T08:16:39;21.70;90.30
43679;DHT22;29279;50.858;4.392;2022-07-15T08:19:08;21.70;89.90
43679;DHT22;29279;50.858;4.392;2022-07-15T08:21:34;21.60;90.30
43679;DHT22;29279;50.858;4.392;2022-07-15T08:24:00;21.80;90.40
43679;DHT22;29279;50.858;4.392;2022-07-15T08:26:25;21.90;90.30
43679;DHT22;29279;50.858;4.392;2022-07-15T08:28:52;22.00;89.60
43679;DHT22;29279;50.858;4.392;2022-07-15T08:31:19;22.10;89.80
43679;DHT22;29279;50.858;4.392;2022-07-15T08:33:45;22.20;89.60
43679;DHT22;29279;50.858;4.392;2022-07-15T08:36:11;22.40;88.90
43679;DHT22;29279;50.858;4.392;2022-07-15T08:38:38;22.50;88.20
43679;DHT22;29279;50.858;4.392;2022-07-15T08:41:03;22.60;88.40
43679;DHT22;29279;50.858;4.392;2022-07-15T08:43:29;22.80;87.00
43679;DHT22;29279;50.858;4.392;2022-07-15T08:45:55;23.00;87.10
43679;DHT22;29279;50.858;4.392;2022-07-15T08:48:27;23.20;86.10
43679;DHT22;29279;50.858;4.392;2022-07-15T08:50:55;23.10;85.10
43679;DHT22;29279;50.858;4.392;2022-07-15T08:53:21;22.80;84.40
43679;DHT22;29279;50.858;4.392;2022-07-15T08:55:47;22.70;84.80
43679;DHT22;29279;50.858;4.392;2022-07-15T08:58:13;22.80;85.60
43679;DHT22;29279;50.858;4.392;2022-07-15T09:00:38;22.90;85.20
43679;DHT22;29279;50.858;4.392;2022-07-15T09:03:04;23.00;85.80
43679;DHT22;29279;50.858;4.392;2022-07-15T09:05:35;23.10;84.60
43679;DHT22;29279;50.858;4.392;2022-07-15T09:08:07;23.20;84.50
43679;DHT22;29279;50.858;4.392;2022-07-15T09:10:52;23.20;83.20
43679;DHT22;29279;50.858;4.392;2022-07-15T09:15:51;22.70;82.90
43679;DHT22;29279;50.858;4.392;2022-07-15T09:18:20;22.80;83.60
43679;DHT22;29279;50.858;4.392;2022-07-15T09:20:48;23.00;83.50
43679;DHT22;29279;50.858;4.392;2022-07-15T09:23:21;23.30;83.20
43679;DHT22;29279;50.858;4.392;2022-07-15T09:25:49;23.60;82.10
43679;DHT22;29279;50.858;4.392;2022-07-15T09:28:16;23.90;80.60
43679;DHT22;29279;50.858;4.392;2022-07-15T09:30:46;24.00;79.60
43679;DHT22;29279;50.858;4.392;2022-07-15T09:33:32;24.10;78.60
43679;DHT22;29279;50.858;4.392;2022-07-15T09:38:54;24.30;78.10
43679;DHT22;29279;50.858;4.392;2022-07-15T09:41:33;24.40;77.00
43679;DHT22;29279;50.858;4.392;2022-07-15T09:44:16;24.70;76.70
43679;DHT22;29279;50.858;4.392;2022-07-15T09:46:54;25.00;76.00
43679;DHT22;29279;50.858;4.392;2022-07-15T09:52:03;25.60;74.00
43679;DHT22;29279;50.858;4.392;2022-07-15T09:54:35;25.90;73.20
43679;DHT22;29279;50.858;4.392;2022-07-15T09:57:04;25.80;72.40
43679;DHT22;29279;50.858;4.392;2022-07-15T09:59:31;26.00;72.20
43679;DHT22;29279;50.858;4.392;2022-07-15T10:01:57;26.30;71.20
43679;DHT22;29279;50.858;4.392;2022-07-15T10:04:25;26.60;69.20
43679;DHT22;29279;50.858;4.392;2022-07-15T10:06:53;26.30;69.30
43679;DHT22;29279;50.858;4.392;2022-07-15T10:09:25;26.40;70.10
43679;DHT22;29279;50.858;4.392;2022-07-15T10:11:55;26.80;69.00
43679;DHT22;29279;50.858;4.392;2022-07-15T10:22:47;27.60;67.10
43679;DHT22;29279;50.858;4.392;2022-07-15T10:31:14;28.50;66.80
43679;DHT22;29279;50.858;4.392;2022-07-15T10:33:41;28.70;65.80
43679;DHT22;29279;50.858;4.392;2022-07-15T10:36:08;28.70;65.20
43679;DHT22;29279;50.858;4.392;2022-07-15T10:38:36;28.30;65.70
43679;DHT22;29279;50.858;4.392;2022-07-15T10:41:13;28.10;65.40
43679;DHT22;29279;50.858;4.392;2022-07-15T10:43:53;27.80;65.30
43679;DHT22;29279;50.858;4.392;2022-07-15T10:46:24;27.40;65.60
43679;DHT22;29279;50.858;4.392;2022-07-15T10:48:53;27.30;66.80
43679;DHT22;29279;50.858;4.392;2022-07-15T10:54:06;27.30;66.90
43679;DHT22;29279;50.858;4.392;2022-07-15T10:56:34;27.80;66.50
43679;DHT22;29279;50.858;4.392;2022-07-15T10:59:17;28.50;66.30
43679;DHT22;29279;50.858;4.392;2022-07-15T11:02:21;29.50;65.10
43679;DHT22;29279;50.858;4.392;2022-07-15T11:04:40;30.40;64.20
43679;DHT22;29279;50.858;4.392;2022-07-15T11:12:17;32.40;59.30
43679;DHT22;29279;50.858;4.392;2022-07-15T11:15:04;32.60;57.90
43679;DHT22;29279;50.858;4.392;2022-07-15T11:20:18;33.10;56.50
43679;DHT22;29279;50.858;4.392;2022-07-15T11:22:47;32.50;58.60
43679;DHT22;29279;50.858;4.392;2022-07-15T11:25:33;31.60;58.20
43679;DHT22;29279;50.858;4.392;2022-07-15T11:33:00;32.20;57.40
43679;DHT22;29279;50.858;4.392;2022-07-15T11:35:28;33.00;56.50
43679;DHT22;29279;50.858;4.392;2022-07-15T11:38:02;33.70;55.80
43679;DHT22;29279;50.858;4.392;2022-07-15T11:40:30;34.20;55.40
43679;DHT22;29279;50.858;4.392;2022-07-15T11:43:19;34.70;55.00
43679;DHT22;29279;50.858;4.392;2022-07-15T11:46:05;35.00;53.60
43679;DHT22;29279;50.858;4.392;2022-07-15T11:48:38;35.00;53.70
43679;DHT22;29279;50.858;4.392;2022-07-15T11:51:06;33.60;54.20
43679;DHT22;29279;50.858;4.392;2022-07-15T11:53:38;32.40;54.70
43679;DHT22;29279;50.858;4.392;2022-07-15T11:56:04;31.80;55.50
43679;DHT22;29279;50.858;4.392;2022-07-15T11:58:33;31.80;55.00
43679;DHT22;29279;50.858;4.392;2022-07-15T12:01:02;31.40;55.70
43679;DHT22;29279;50.858;4.392;2022-07-15T12:03:36;32.10;55.70
43679;DHT22;29279;50.858;4.392;2022-07-15T12:09:06;32.10;55.50
43679;DHT22;29279;50.858;4.392;2022-07-15T12:16:23;30.30;55.80
43679;DHT22;29279;50.858;4.392;2022-07-15T12:18:55;30.40;55.90
43679;DHT22;29279;50.858;4.392;2022-07-15T12:21:22;32.00;55.00
43679;DHT22;29279;50.858;4.392;2022-07-15T12:26:36;33.70;53.70
43679;DHT22;29279;50.858;4.392;2022-07-15T12:29:04;34.00;53.30
43679;DHT22;29279;50.858;4.392;2022-07-15T12:31:32;34.30;53.10
43679;DHT22;29279;50.858;4.392;2022-07-15T12:34:00;34.60;52.30
43679;DHT22;29279;50.858;4.392;2022-07-15T12:36:28;33.90;52.10
43679;DHT22;29279;50.858;4.392;2022-07-15T12:39:05;32.50;53.00
43679;DHT22;29279;50.858;4.392;2022-07-15T12:41:32;31.70;53.30
43679;DHT22;29279;50.858;4.392;2022-07-15T12:43:59;32.20;54.00
43679;DHT22;29279;50.858;4.392;2022-07-15T12:46:54;32.40;53.30
43679;DHT22;29279;50.858;4.392;2022-07-15T12:52:15;34.60;52.20
43679;DHT22;29279;50.858;4.392;2022-07-15T12:54:41;35.40;52.00
43679;DHT22;29279;50.858;4.392;2022-07-15T12:57:29;35.20;51.30
43679;DHT22;29279;50.858;4.392;2022-07-15T13:00:13;33.70;51.00
43679;DHT22;29279;50.858;4.392;2022-07-15T13:03:18;32.30;51.70
43679;DHT22;29279;50.858;4.392;2022-07-15T13:05:49;31.30;52.90
43679;DHT22;29279;50.858;4.392;2022-07-15T13:08:20;31.80;54.40
43679;DHT22;29279;50.858;4.392;2022-07-15T13:10:51;33.60;53.20
43679;DHT22;29279;50.858;4.392;2022-07-15T13:13:19;34.60;52.30
43679;DHT22;29279;50.858;4.392;2022-07-15T13:15:46;35.50;52.20
43679;DHT22;29279;50.858;4.392;2022-07-15T13:18:13;36.10;50.90
43679;DHT22;29279;50.858;4.392;2022-07-15T13:20:39;36.30;50.30
43679;DHT22;29279;50.858;4.392;2022-07-15T13:23:05;36.40;50.70
43679;DHT22;29279;50.858;4.392;2022-07-15T13:25:32;36.40;50.00
43679;DHT22;29279;50.858;4.392;2022-07-15T13:28:04;36.80;50.30
43679;DHT22;29279;50.858;4.392;2022-07-15T13:30:31;37.20;50.70
43679;DHT22;29279;50.858;4.392;2022-07-15T13:32:57;37.50;49.60
43679;DHT22;29279;50.858;4.392;2022-07-15T13:35:23;37.80;49.50
43679;DHT22;29279;50.858;4.392;2022-07-15T13:37:49;38.10;49.10
43679;DHT22;29279;50.858;4.392;2022-07-15T13:40:15;37.30;49.50
43679;DHT22;29279;50.858;4.392;2022-07-15T13:42:42;35.90;49.60
43679;DHT22;29279;50.858;4.392;2022-07-15T13:45:09;34.60;50.60
43679;DHT22;29279;50.858;4.392;2022-07-15T13:47:35;34.10;51.40
43679;DHT22;29279;50.858;4.392;2022-07-15T13:50:04;32.90;51.70
43679;DHT22;29279;50.858;4.392;2022-07-15T13:52:49;31.80;52.70
43679;DHT22;29279;50.858;4.392;2022-07-15T13:55:16;31.00;54.10
43679;DHT22;29279;50.858;4.392;2022-07-15T13:57:42;30.80;54.60
43679;DHT22;29279;50.858;4.392;2022-07-15T14:00:11;30.40;54.90
43679;DHT22;29279;50.858;4.392;2022-07-15T14:02:38;30.20;54.70
43679;DHT22;29279;50.858;4.392;2022-07-15T14:05:04;30.00;54.80
43679;DHT22;29279;50.858;4.392;2022-07-15T14:07:31;29.80;55.20
43679;DHT22;29279;50.858;4.392;2022-07-15T14:09:57;29.60;54.60
43679;DHT22;29279;50.858;4.392;2022-07-15T14:12:22;29.50;55.20
43679;DHT22;29279;50.858;4.392;2022-07-15T14:14:48;29.30;55.40
43679;DHT22;29279;50.858;4.392;2022-07-15T14:17:14;29.10;55.60
43679;DHT22;29279;50.858;4.392;2022-07-15T14:19:40;28.90;56.10
43679;DHT22;29279;50.858;4.392;2022-07-15T14:22:05;28.70;56.50
43679;DHT22;29279;50.858;4.392;2022-07-15T14:24:31;28.90;56.60
43679;DHT22;29279;50.858;4.392;2022-07-15T14:26:57;28.70;56.70
43679;DHT22;29279;50.858;4.392;2022-07-15T14:29:23;28.70;56.70
43679;DHT22;29279;50.858;4.392;2022-07-15T14:31:48;28.60;57.10
43679;DHT22;29279;50.858;4.392;2022-07-15T14:34:14;28.70;57.20
43679;DHT22;29279;50.858;4.392;2022-07-15T14:36:40;28.70;57.50
43679;DHT22;29279;50.858;4.392;2022-07-15T14:39:07;28.60;57.70
43679;DHT22;29279;50.858;4.392;2022-07-15T14:41:33;28.70;57.30
43679;DHT22;29279;50.858;4.392;2022-07-15T14:44:00;28.50;57.30
43679;DHT22;29279;50.858;4.392;2022-07-15T14:46:25;28.60;57.60
43679;DHT22;29279;50.858;4.392;2022-07-15T14:48:51;28.60;57.30
43679;DHT22;29279;50.858;4.392;2022-07-15T14:51:17;29.30;56.20
43679;DHT22;29279;50.858;4.392;2022-07-15T14:53:43;29.70;56.70
43679;DHT22;29279;50.858;4.392;2022-07-15T14:56:09;29.50;56.50
43679;DHT22;29279;50.858;4.392;2022-07-15T14:58:34;29.10;56.70
43679;DHT22;29279;50.858;4.392;2022-07-15T15:01:00;28.70;56.50
43679;DHT22;29279;50.858;4.392;2022-07-15T15:03:26;28.50;56.70
43679;DHT22;29279;50.858;4.392;2022-07-15T15:05:52;28.40;57.20
43679;DHT22;29279;50.858;4.392;2022-07-15T15:08:17;28.30;57.50
43679;DHT22;29279;50.858;4.392;2022-07-15T15:10:43;28.30;57.70
43679;DHT22;29279;50.858;4.392;2022-07-15T15:13:09;28.10;57.50
43679;DHT22;29279;50.858;4.392;2022-07-15T15:15:35;28.10;58.00
43679;DHT22;29279;50.858;4.392;2022-07-15T15:18:01;28.00;58.00
43679;DHT22;29279;50.858;4.392;2022-07-15T15:20:27;27.80;58.20
43679;DHT22;29279;50.858;4.392;2022-07-15T15:22:52;27.70;58.40
43679;DHT22;29279;50.858;4.392;2022-07-15T15:25:18;27.60;58.40
43679;DHT22;29279;50.858;4.392;2022-07-15T15:28:05;27.70;59.00
43679;DHT22;29279;50.858;4.392;2022-07-15T15:30:32;28.00;59.50
43679;DHT22;29279;50.858;4.392;2022-07-15T15:32:58;28.10;59.00
43679;DHT22;29279;50.858;4.392;2022-07-15T15:35:24;28.20;58.90
43679;DHT22;29279;50.858;4.392;2022-07-15T15:37:50;28.20;58.10
43679;DHT22;29279;50.858;4.392;2022-07-15T15:40:16;28.10;58.40
43679;DHT22;29279;50.858;4.392;2022-07-15T15:42:42;28.10;58.90
43679;DHT22;29279;50.858;4.392;2022-07-15T15:45:08;28.40;59.10
43679;DHT22;29279;50.858;4.392;2022-07-15T15:47:34;28.50;58.20
43679;DHT22;29279;50.858;4.392;2022-07-15T15:50:00;28.50;58.10
43679;DHT22;29279;50.858;4.392;2022-07-15T15:52:26;28.60;57.80
43679;DHT22;29279;50.858;4.392;2022-07-15T15:54:51;28.60;57.80
43679;DHT22;29279;50.858;4.392;2022-07-15T15:57:17;28.50;57.20
43679;DHT22;29279;50.858;4.392;2022-07-15T15:59:43;28.40;57.90
43679;DHT22;29279;50.858;4.392;2022-07-15T16:02:08;28.40;58.20
43679;DHT22;29279;50.858;4.392;2022-07-15T16:04:34;28.50;57.90
43679;DHT22;29279;50.858;4.392;2022-07-15T16:07:02;28.60;57.40
43679;DHT22;29279;50.858;4.392;2022-07-15T16:09:28;28.50;58.00
43679;DHT22;29279;50.858;4.392;2022-07-15T16:11:54;28.70;57.90
43679;DHT22;29279;50.858;4.392;2022-07-15T16:14:19;28.70;58.20
43679;DHT22;29279;50.858;4.392;2022-07-15T16:16:45;28.70;58.00
43679;DHT22;29279;50.858;4.392;2022-07-15T16:19:11;28.70;57.80
43679;DHT22;29279;50.858;4.392;2022-07-15T16:21:36;28.60;58.60
43679;DHT22;29279;50.858;4.392;2022-07-15T16:24:21;28.70;58.40